Latest Weather Observations for PORTABLE NPWS NSW02

IDN60801

Issued at 3:32 pm EST Tuesday 30 May 2023 (issued every 10 minutes, with the page automatically refreshed every 10 minutes)

About weather observations | Map of weather stations | Latest weather observations for NSW | Other Formats
Station Details ID: 250099 Name: PORTABLE NPWS NSW02 Lat: -33.10 Lon: 150.07 Height: 983.0 m

Portable automatic weather stations (PAWS) are operated by other organisations, such as Fire and Emergency Services, and are included here by agreement. Portable stations may be deployed to a location for a short period and their location may be subject to change without notice. Wind observations from these stations are provided from heights of either three (3) or ten (10) metres above ground level (AGL).

Data from the previous 72 hours. | See also: Recent months for locations in New South Wales
Date/Time
EST
Temp
°C
App
Temp
°C
Dew
Point
°C
Rel
Hum
%
Delta-T
°C
Wind Press
QNH
hPa
Press
MSL
hPa
Rain since
9am
mm
Dir  Spd
km/h
Gust
km/h
Spd
kts
Gust
kts
30/03:20pm 12.7 7.8 4.2 56 4.1 WSW 19 22 10 12 - - 0.0
30/03:10pm 12.9 8.4 4.4 56 4.1 WSW 17 22 9 12 - - 0.0
30/03:00pm 13.0 9.3 4.4 56 4.2 NNW 13 24 7 13 - - 0.0
30/02:50pm 13.3 10.0 4.6 55 4.2 W 11 22 6 12 - - 0.0
30/02:40pm 12.8 7.8 4.5 57 4.0 W 20 24 11 13 - - 0.0
30/02:30pm 13.3 8.9 4.6 55 4.2 WNW 17 22 9 12 - - 0.0
30/02:20pm 13.3 8.5 4.6 55 4.2 W 19 24 10 13 - - 0.0
30/02:10pm 13.7 10.5 4.9 55 4.3 WNW 11 15 6 8 - - 0.0
30/02:00pm 13.3 9.3 4.8 56 4.2 W 15 20 8 11 - - 0.0
30/01:50pm 12.9 8.1 4.7 57 4.0 WSW 19 22 10 12 - - 0.0
30/01:40pm 12.5 7.5 4.4 57 3.9 W 20 24 11 13 - - 0.0
30/01:30pm 12.8 7.8 4.7 58 3.9 W 20 24 11 13 - - 0.0
30/01:20pm 14.1 9.7 4.7 53 4.6 W 17 22 9 12 - - 0.0
30/01:10pm 13.4 9.0 4.9 56 4.2 WSW 17 20 9 11 - - 0.0
30/01:00pm 13.4 10.2 5.1 57 4.1 WSW 11 15 6 8 - - 0.0
30/12:40pm 12.3 7.9 4.8 60 3.6 W 17 22 9 12 - - 0.0
30/12:30pm 12.3 8.0 5.1 61 3.5 WSW 17 24 9 13 - - 0.0
30/12:20pm 12.2 7.4 4.8 60 3.6 WSW 19 22 10 12 - - 0.0
30/12:10pm 12.7 8.3 4.9 59 3.8 W 17 20 9 11 - - 0.0
30/12:00pm 12.7 8.6 4.6 58 3.9 W 15 19 8 10 - - 0.0
30/11:50am 12.5 8.1 4.8 59 3.7 WSW 17 22 9 12 - - 0.0
30/11:40am 12.2 7.8 4.5 59 3.7 WSW 17 19 9 10 - - 0.0
30/11:30am 11.9 7.8 4.6 61 3.5 WSW 15 20 8 11 - - 0.0
30/11:20am 11.5 6.7 4.7 63 3.3 WSW 19 22 10 12 - - 0.0
30/11:10am 11.8 7.8 4.7 62 3.4 WSW 15 19 8 10 - - 0.0
30/11:00am 12.0 8.0 4.8 61 3.5 WSW 15 19 8 10 - - 0.0
30/10:50am 11.9 9.0 4.8 62 3.4 WNW 9 17 5 9 - - 0.0
30/10:40am 11.7 8.4 4.7 62 3.4 WNW 11 15 6 8 - - 0.0
30/10:30am 11.7 8.8 4.7 62 3.4 WNW 9 15 5 8 - - 0.0
30/10:20am 11.5 8.6 4.9 64 3.2 W 9 15 5 8 - - 0.0
30/10:10am 11.3 8.4 4.6 63 3.2 W 9 17 5 9 - - 0.0
30/10:00am 10.6 7.7 4.9 68 2.7 W 9 13 5 7 - - 0.0
30/09:50am 10.3 6.7 4.9 69 2.6 W 13 20 7 11 - - 0.0
30/09:30am 9.5 5.9 4.8 72 2.2 WSW 13 19 7 10 - - 0.0
30/09:20am 9.4 6.6 5.1 74 2.1 W 9 15 5 8 - - 0.0
30/09:10am 8.9 6.0 4.8 75 1.9 W 9 15 5 8 - - 0.0
30/09:00am 8.7 5.8 4.9 77 1.8 W 9 15 5 8 - - 0.0
30/08:50am 8.4 5.1 4.8 78 1.7 W 11 17 6 9 - - 0.0
30/08:40am 8.3 4.6 4.7 78 1.7 WSW 13 15 7 8 - - 0.0
30/08:30am 7.9 3.9 4.7 80 1.5 WSW 15 24 8 13 - - 0.0
30/08:20am 7.6 4.0 4.8 82 1.3 WSW 13 15 7 8 - - 0.0
30/08:10am 7.4 3.7 4.7 83 1.3 WSW 13 17 7 9 - - 0.0
30/08:00am 7.1 3.0 4.5 83 1.2 WSW 15 19 8 10 - - 0.0
30/07:50am 6.6 3.3 4.4 86 1.0 W 11 20 6 11 - - 0.0
30/07:40am 6.1 2.4 4.3 88 0.8 W 13 19 7 10 - - 0.0
30/07:30am 5.8 2.1 4.2 89 0.7 W 13 20 7 11 - - 0.0
30/07:20am 5.8 1.7 4.1 89 0.8 WSW 15 20 8 11 - - 0.0
30/07:10am 5.8 0.7 4.0 88 0.8 W 20 24 11 13 - - 0.0
30/07:00am 5.7 0.6 3.9 88 0.8 W 20 26 11 14 - - 0.0
30/06:50am 5.6 0.5 4.0 89 0.7 W 20 24 11 13 - - 0.0
30/06:40am 5.7 -0.2 4.1 89 0.7 WSW 24 28 13 15 - - 0.0
30/06:30am 5.8 -0.8 4.1 89 0.8 WSW 28 30 15 16 - - 0.0
30/06:20am 5.8 -1.2 4.1 89 0.8 WSW 30 33 16 18 - - 0.0
30/06:10am 5.6 -0.6 4.2 91 0.6 WSW 26 30 14 16 - - 0.0
30/06:00am 5.4 -0.4 4.3 93 0.5 W 24 28 13 15 - - 0.0
30/05:50am 5.4 0.0 4.3 93 0.5 WSW 22 24 12 13 - - 0.0
30/05:40am 5.5 0.4 4.3 92 0.5 WSW 20 28 11 15 - - 0.0
30/05:30am 5.5 0.6 4.3 92 0.5 WSW 19 26 10 14 - - 0.0
30/05:20am 5.5 -0.3 4.3 92 0.5 WSW 24 28 13 15 - - 0.0
30/05:10am 5.5 -0.3 4.4 93 0.5 WSW 24 26 13 14 - - 0.0
30/05:00am 5.5 0.1 4.4 93 0.5 WSW 22 24 12 13 - - 0.0
30/04:50am 5.6 0.2 4.4 92 0.5 WSW 22 26 12 14 - - 0.0
30/04:40am 5.7 0.7 4.4 91 0.6 W 20 26 11 14 - - 0.0
30/04:30am 5.7 0.3 4.4 91 0.6 W 22 28 12 15 - - 0.0
30/04:20am 5.7 1.2 4.4 91 0.6 W 17 24 9 13 - - 0.0
30/04:10am 5.8 0.8 4.5 91 0.6 W 20 26 11 14 - - 0.0
30/04:00am 5.7 0.9 4.4 91 0.6 W 19 26 10 14 - - 0.0
30/03:50am 5.7 1.3 4.5 92 0.5 W 17 22 9 12 - - 0.0
30/03:40am 5.7 1.6 4.5 92 0.5 WNW 15 20 8 11 - - 0.0
30/03:30am 5.7 2.0 4.5 92 0.5 WNW 13 19 7 10 - - 0.0
30/03:20am 5.8 2.1 4.4 91 0.6 WNW 13 19 7 10 - - 0.0
30/03:10am 5.9 2.2 4.3 89 0.7 WNW 13 17 7 9 - - 0.0
30/03:00am 6.1 2.3 4.1 87 0.9 W 13 17 7 9 - - 0.0
30/02:50am 6.2 2.0 3.8 85 1.1 W 15 17 8 9 - - 0.0
30/02:40am 6.4 1.8 3.8 83 1.2 W 17 20 9 11 - - 0.0
30/02:30am 6.5 1.3 3.7 82 1.3 W 20 26 11 14 - - 0.0
30/02:20am 6.5 0.9 3.7 82 1.3 W 22 26 12 14 - - 0.0
30/02:10am 6.5 1.9 3.6 82 1.3 W 17 22 9 12 - - 0.0
30/02:00am 6.5 1.5 3.6 82 1.3 WSW 19 26 10 14 - - 0.0
30/01:50am 6.4 2.2 3.8 83 1.2 W 15 19 8 10 - - 0.0
30/01:40am 6.4 3.0 3.9 84 1.1 W 11 17 6 9 - - 0.0
30/01:30am 6.5 3.1 3.9 83 1.2 W 11 17 6 9 - - 0.0
30/01:20am 6.6 2.4 4.0 83 1.2 W 15 22 8 12 - - 0.0
30/01:10am 6.7 1.6 3.9 82 1.3 WSW 20 24 11 13 - - 0.0
30/01:00am 6.8 1.7 3.9 82 1.3 WSW 20 24 11 13 - - 0.0
30/12:50am 6.8 1.3 4.0 82 1.3 WSW 22 26 12 14 - - 0.0
30/12:40am 6.8 1.3 4.2 83 1.2 WSW 22 26 12 14 - - 0.0
30/12:30am 6.9 1.5 4.4 84 1.2 WSW 22 28 12 15 - - 0.0
30/12:20am 6.9 1.9 4.4 84 1.2 W 20 26 11 14 - - 0.0
30/12:10am 6.9 2.8 4.4 84 1.2 W 15 24 8 13 - - 0.0
30/12:00am 7.1 3.4 4.4 83 1.2 WSW 13 20 7 11 - - 0.0
 
Date/Time
EST
Temp
°C
App
Temp
°C
Dew
Point
°C
Rel
Hum
%
Delta-T
°C
Wind Press
QNH
hPa
Press
MSL
hPa
Rain since
9am
mm
Dir  Spd
km/h
Gust
km/h
Spd
kts
Gust
kts
29/11:50pm 7.3 2.8 4.2 81 1.4 WSW 17 22 9 12 - - 0.0
29/11:40pm 7.3 3.6 4.4 82 1.3 W 13 19 7 10 - - 0.0
29/11:30pm 7.2 3.9 4.4 82 1.3 WNW 11 15 6 8 - - 0.0
29/11:20pm 7.0 3.3 4.5 84 1.2 W 13 19 7 10 - - 0.0
29/11:10pm 6.8 2.7 4.6 86 1.0 WSW 15 19 8 10 - - 0.0
29/11:00pm 6.8 3.5 4.6 86 1.0 WSW 11 13 6 7 - - 0.0
29/10:50pm 6.9 3.6 4.6 85 1.1 W 11 15 6 8 - - 0.0
29/10:40pm 7.1 3.8 4.5 83 1.2 W 11 13 6 7 - - 0.0
29/10:30pm 7.2 2.7 4.4 82 1.3 W 17 22 9 12 - - 0.0
29/10:20pm 7.1 3.0 4.4 83 1.2 W 15 19 8 10 - - 0.0
29/10:10pm 7.2 3.9 4.6 83 1.2 W 11 17 6 9 - - 0.0
29/10:00pm 7.4 4.1 4.6 82 1.3 W 11 20 6 11 - - 0.0
29/09:50pm 7.5 4.2 4.7 82 1.3 WSW 11 19 6 10 - - 0.0
29/09:40pm 7.6 3.2 4.6 81 1.4 W 17 20 9 11 - - 0.0
29/09:30pm 7.6 2.6 4.6 81 1.4 W 20 24 11 13 - - 0.0
29/09:20pm 7.6 2.8 4.7 82 1.4 W 19 28 10 15 - - 0.0
29/09:00pm 7.8 4.6 4.9 82 1.4 W 11 17 6 9 - - 0.0
29/08:50pm 7.9 4.3 4.9 81 1.4 WNW 13 19 7 10 - - 0.0
29/08:40pm 7.9 3.9 4.9 81 1.4 W 15 19 8 10 - - 0.0
29/08:30pm 8.0 4.0 4.9 81 1.5 W 15 20 8 11 - - 0.0
29/08:20pm 8.0 4.4 4.8 80 1.5 W 13 24 7 13 - - 0.0
29/08:10pm 8.0 2.6 4.7 80 1.5 WNW 22 28 12 15 - - 0.0
29/08:00pm 7.9 4.2 4.7 80 1.5 NW 13 22 7 12 - - 0.0
29/07:50pm 7.9 3.1 4.6 80 1.5 NW 19 24 10 13 - - 0.0
29/07:40pm 8.0 3.2 4.5 78 1.6 NW 19 26 10 14 - - 0.0
29/07:30pm 8.0 3.2 4.4 78 1.7 NW 19 22 10 12 - - 0.0
29/07:20pm 8.0 3.5 4.4 78 1.7 NW 17 24 9 13 - - 0.0
29/07:10pm 8.0 2.9 4.3 77 1.7 NW 20 28 11 15 - - 0.0
29/07:00pm 8.1 1.9 4.2 76 1.8 NW 26 30 14 16 - - 0.0
29/06:50pm 8.1 3.0 4.1 76 1.8 NW 20 28 11 15 - - 0.0
29/06:40pm 8.2 2.3 4.0 75 1.9 WNW 24 28 13 15 - - 0.0
29/06:30pm 8.2 3.3 4.0 75 1.9 WNW 19 28 10 15 - - 0.0
29/06:20pm 8.3 3.7 3.9 74 2.0 WNW 17 19 9 10 - - 0.0
29/06:10pm 8.3 4.1 3.9 74 2.0 WNW 15 19 8 10 - - 0.0
29/06:00pm 8.5 3.9 3.9 73 2.1 W 17 24 9 13 - - 0.0
29/05:50pm 8.6 3.6 3.7 71 2.3 WNW 19 28 10 15 - - 0.0
29/05:40pm 8.8 3.2 3.5 69 2.4 NW 22 28 12 15 - - 0.0
29/05:30pm 8.9 2.9 3.4 68 2.5 WNW 24 30 13 16 - - 0.0
29/05:20pm 9.0 2.6 3.3 67 2.6 WNW 26 35 14 19 - - 0.0
29/05:10pm 9.1 1.9 3.1 66 2.7 WNW 30 37 16 20 - - 0.0
29/05:00pm 9.2 3.1 2.9 64 2.9 WNW 24 28 13 15 - - 0.0
29/04:50pm 9.4 4.6 2.8 63 3.0 WNW 17 26 9 14 - - 0.0
29/04:40pm 10.0 4.8 2.7 60 3.3 WNW 19 32 10 17 - - 0.0
29/04:30pm 10.5 5.1 2.5 57 3.6 WNW 20 30 11 16 - - 0.0
29/04:20pm 10.6 4.8 2.4 57 3.7 W 22 35 12 19 - - 0.0
29/04:10pm 11.0 5.3 2.6 56 3.8 NW 22 30 12 16 - - 0.0
29/04:00pm 11.4 6.3 3.0 56 3.9 WNW 19 28 10 15 - - 0.0
29/03:50pm 11.5 6.8 3.0 56 3.9 NW 17 24 9 13 - - 0.0
29/03:40pm 11.6 6.2 2.7 54 4.1 NW 20 24 11 13 - - 0.0
29/03:30pm 11.7 6.3 2.7 54 4.1 NW 20 28 11 15 - - 0.0
29/03:20pm 11.5 5.1 3.1 56 3.9 NW 26 37 14 20 - - 0.0
29/03:10pm 11.7 5.2 2.9 55 4.1 NW 26 32 14 17 - - 0.0
29/03:00pm 11.7 4.9 2.9 55 4.1 WNW 28 32 15 17 - - 0.0
29/02:30pm 11.3 4.2 3.4 58 3.7 W 30 41 16 22 - - 0.0
29/02:20pm 12.0 6.5 4.0 58 3.8 WNW 22 37 12 20 - - 0.0
29/02:00pm 12.3 6.8 3.9 56 4.0 WNW 22 35 12 19 - - 0.0
29/01:50pm 12.4 7.3 4.3 57 3.9 W 20 32 11 17 - - 0.0
29/01:40pm 12.0 5.1 4.4 59 3.6 W 30 43 16 23 - - 0.0
29/01:30pm 12.0 5.7 3.8 57 3.9 W 26 33 14 18 - - 0.0
29/01:20pm 11.9 7.0 4.2 59 3.7 W 19 28 10 15 - - 0.0
29/01:10pm 11.9 6.4 4.1 59 3.7 NW 22 33 12 18 - - 0.0
29/01:00pm 11.2 4.9 4.0 61 3.4 WNW 26 43 14 23 - - 0.0
29/12:50pm 11.8 5.2 4.4 60 3.5 WNW 28 41 15 22 - - 0.0
29/12:40pm 11.4 5.2 4.3 61 3.4 W 26 39 14 21 - - 0.0
29/12:30pm 11.3 4.4 4.7 64 3.2 W 30 35 16 19 - - 0.0
29/12:10pm 11.3 6.3 4.7 64 3.2 NW 20 30 11 16 - - 0.0
29/12:00pm 10.9 5.1 4.4 64 3.1 WNW 24 33 13 18 - - 0.0
29/11:50am 10.8 6.3 4.3 64 3.1 WNW 17 32 9 17 - - 0.0
29/11:40am 10.6 5.5 3.9 63 3.1 WNW 20 28 11 15 - - 0.0
29/11:30am 10.8 5.3 4.2 63 3.1 WNW 22 35 12 19 - - 0.0
29/11:20am 10.3 5.3 4.6 68 2.7 W 20 32 11 17 - - 0.0
29/11:10am 10.4 5.4 4.8 68 2.7 W 20 33 11 18 - - 0.0
29/11:00am 10.6 6.7 5.2 69 2.6 WSW 15 19 8 10 - - 0.0
29/10:50am 10.7 6.0 5.0 68 2.7 W 19 26 10 14 - - 0.0
29/10:40am 9.6 3.2 5.1 73 2.2 WSW 28 33 15 18 - - 0.0
29/10:30am 10.2 4.2 5.1 70 2.4 W 26 32 14 17 - - 0.0
29/10:20am 9.8 3.4 5.1 72 2.3 W 28 35 15 19 - - 0.0
29/10:10am 9.6 2.4 5.2 74 2.1 WSW 32 37 17 20 - - 0.0
29/10:00am 9.7 2.9 5.2 73 2.2 W 30 37 16 20 - - 0.0
29/09:50am 9.0 2.7 5.5 79 1.7 WSW 28 37 15 20 - - 0.0
29/09:40am 9.0 1.7 5.5 79 1.7 WSW 33 39 18 21 - - 0.0
29/09:30am 9.0 2.7 5.6 79 1.6 W 28 39 15 21 - - 0.0
29/09:20am 9.5 2.2 5.5 76 1.9 W 33 39 18 21 - - 0.0
29/09:10am 9.4 2.7 5.5 76 1.9 W 30 39 16 21 - - 0.0
29/09:00am 9.1 3.2 5.6 79 1.7 W 26 33 14 18 - - 0.0
29/08:50am 8.8 2.5 5.6 80 1.5 W 28 39 15 21 - - 0.0
29/08:30am 8.3 2.7 5.4 82 1.4 W 24 33 13 18 - - 0.0
29/08:20am 7.8 1.9 5.6 86 1.0 W 26 32 14 17 - - 0.0
29/08:10am 7.7 2.1 5.6 86 1.0 W 24 28 13 15 - - 0.0
29/08:00am 7.5 1.5 5.5 87 0.9 W 26 37 14 20 - - 0.0
29/07:50am 7.2 1.6 5.5 89 0.8 WNW 24 30 13 16 - - 0.0
29/07:40am 6.9 1.7 5.6 91 0.6 WNW 22 30 12 16 - - 0.0
29/07:20am 6.8 1.6 5.4 91 0.7 NW 22 33 12 18 - - 0.0
29/07:10am 6.5 1.6 5.3 92 0.6 WNW 20 26 11 14 - - 0.0
29/07:00am 6.5 1.6 5.2 91 0.6 WNW 20 24 11 13 - - 0.0
29/06:50am 6.4 2.0 5.0 91 0.7 WNW 17 20 9 11 - - 0.0
29/06:40am 6.4 1.5 4.9 90 0.7 WNW 20 24 11 13 - - 0.0
29/06:30am 6.5 1.7 4.8 89 0.8 W 19 22 10 12 - - 0.0
29/06:20am 6.6 2.2 4.8 88 0.8 WNW 17 20 9 11 - - 0.0
29/06:10am 6.7 1.9 4.8 88 0.9 W 19 32 10 17 - - 0.0
29/06:00am 6.7 1.4 4.8 88 0.9 W 22 28 12 15 - - 0.0
29/05:50am 6.6 1.8 4.9 89 0.8 WNW 19 24 10 13 - - 0.0
29/05:40am 6.7 2.0 5.1 89 0.7 WNW 19 24 10 13 - - 0.0
29/05:30am 6.6 2.3 5.1 90 0.7 WNW 17 24 9 13 - - 0.0
29/05:20am 6.6 2.6 5.1 90 0.7 W 15 19 8 10 - - 0.0
29/05:10am 6.7 2.3 5.0 89 0.8 W 17 26 9 14 - - 0.0
29/05:00am 6.6 1.9 5.0 89 0.7 WSW 19 26 10 14 - - 0.0
29/04:50am 6.5 1.6 5.0 90 0.7 WSW 20 28 11 15 - - 0.0
29/04:40am 6.5 1.8 5.0 90 0.7 W 19 22 10 12 - - 0.0
29/04:30am 6.7 2.0 5.0 89 0.8 W 19 28 10 15 - - 0.0
29/04:20am 6.7 1.4 5.0 89 0.8 WSW 22 30 12 16 - - 0.0
29/04:10am 6.6 2.3 5.1 90 0.7 WSW 17 24 9 13 - - 0.0
29/04:00am 6.7 2.8 5.3 91 0.7 W 15 24 8 13 - - 0.0
29/03:50am 6.6 2.7 5.4 92 0.6 W 15 19 8 10 - - 0.0
29/03:40am 6.6 3.1 5.4 92 0.6 W 13 17 7 9 - - 0.0
29/03:30am 6.6 2.3 5.4 92 0.6 W 17 22 9 12 - - 0.0
29/03:20am 6.5 2.6 5.4 93 0.5 W 15 20 8 11 - - 0.0
29/03:10am 6.4 2.9 5.5 94 0.4 WNW 13 17 7 9 - - 0.0
29/03:00am 6.4 3.3 5.5 94 0.4 WNW 11 15 6 8 - - 0.0
29/02:50am 6.3 2.8 5.6 95 0.3 W 13 20 7 11 - - 0.0
29/02:40am 6.3 3.2 5.5 95 0.4 WSW 11 13 6 7 - - 0.0
29/02:30am 6.4 2.9 5.4 93 0.5 NW 13 19 7 10 - - 0.0
29/02:20am 6.3 2.7 5.2 93 0.5 WNW 13 17 7 9 - - 0.0
29/02:10am 6.3 2.0 5.2 93 0.5 W 17 20 9 11 - - 0.0
29/02:00am 6.3 1.6 5.2 93 0.5 W 19 28 10 15 - - 0.0
29/01:50am 6.3 1.6 5.2 93 0.5 W 19 24 10 13 - - 0.0
29/01:40am 6.3 1.6 5.2 93 0.5 W 19 28 10 15 - - 0.0
29/01:30am 6.4 1.7 5.1 91 0.6 W 19 26 10 14 - - 0.0
29/01:20am 6.3 0.6 5.1 92 0.6 WNW 24 32 13 17 - - 0.0
29/01:10am 6.3 1.4 5.0 91 0.6 WNW 20 30 11 16 - - 0.0
29/01:00am 6.3 0.6 4.9 91 0.6 WNW 24 32 13 17 - - 0.0
29/12:50am 6.3 1.4 4.9 91 0.6 WNW 20 26 11 14 - - 0.0
29/12:40am 6.3 0.6 4.8 90 0.7 WNW 24 35 13 19 - - 0.0
29/12:30am 6.4 0.7 4.7 89 0.8 NW 24 28 13 15 - - 0.0
29/12:20am 6.4 0.2 4.5 88 0.9 WNW 26 32 14 17 - - 0.0
29/12:10am 6.4 0.9 4.2 86 1.0 WNW 22 33 12 18 - - 0.0
29/12:00am 6.4 0.5 3.9 84 1.1 WNW 24 30 13 16 - - 0.0
 
Date/Time
EST
Temp
°C
App
Temp
°C
Dew
Point
°C
Rel
Hum
%
Delta-T
°C
Wind Press
QNH
hPa
Press
MSL
hPa
Rain since
9am
mm
Dir  Spd
km/h
Gust
km/h
Spd
kts
Gust
kts
28/11:50pm 6.4 0.4 3.6 82 1.3 WNW 24 35 13 19 - - 0.0
28/11:40pm 6.4 0.8 3.3 80 1.4 WNW 22 35 12 19 - - 0.0
28/11:30pm 6.3 1.0 2.9 79 1.5 WNW 20 35 11 19 - - 0.0
28/11:20pm 6.4 1.3 2.8 78 1.6 WNW 19 30 10 16 - - 0.0
28/11:10pm 6.5 1.3 2.7 77 1.7 W 19 24 10 13 - - 0.0
28/11:00pm 6.5 1.3 2.5 75 1.8 W 19 26 10 14 - - 0.0
28/10:50pm 6.5 1.1 2.3 74 1.8 W 20 28 11 15 - - 0.0
28/10:40pm 6.4 1.2 2.2 74 1.8 WNW 19 24 10 13 - - 0.0
28/10:30pm 6.4 0.2 2.1 74 1.9 WNW 24 28 13 15 - - 0.0
28/10:20pm 6.4 0.2 2.0 73 1.9 WNW 24 30 13 16 - - 0.0
28/10:10pm 6.4 -0.2 1.8 72 2.0 WNW 26 37 14 20 - - 0.0
28/10:00pm 6.4 0.1 1.7 72 2.0 WNW 24 30 13 16 - - 0.0
28/09:50pm 6.4 0.5 1.6 71 2.1 WNW 22 30 12 16 - - 0.0
28/09:40pm 6.4 0.1 1.5 71 2.1 WNW 24 35 13 19 - - 0.0
28/09:30pm 6.4 -0.3 1.5 71 2.1 WNW 26 33 14 18 - - 0.0
28/09:20pm 6.4 0.5 1.5 71 2.1 NW 22 30 12 16 - - 0.0
28/09:10pm 6.4 0.5 1.5 71 2.1 NW 22 30 12 16 - - 0.0
28/09:00pm 6.3 0.4 1.6 72 2.0 NW 22 33 12 18 - - 0.0
28/08:50pm 6.3 0.0 1.6 72 2.0 NW 24 33 13 18 - - 0.0
28/08:40pm 6.3 0.4 1.6 72 2.0 NW 22 28 12 15 - - 0.0
28/08:30pm 6.3 0.0 1.6 72 2.0 NW 24 39 13 21 - - 0.0
28/08:20pm 6.3 0.4 1.6 72 2.0 WNW 22 32 12 17 - - 0.0
28/08:00pm 6.1 2.3 1.6 73 1.9 W 11 15 6 8 - - 0.0
28/07:50pm 6.1 1.5 1.6 73 1.9 W 15 24 8 13 - - 0.0
28/07:40pm 6.1 1.9 1.6 73 1.9 WNW 13 19 7 10 - - 0.0
28/07:30pm 6.1 1.5 1.6 73 1.9 WNW 15 20 8 11 - - 0.0
28/07:20pm 6.2 1.6 1.6 72 2.0 W 15 24 8 13 - - 0.0
28/07:10pm 6.3 0.7 1.5 71 2.1 W 20 26 11 14 - - 0.0
28/07:00pm 6.4 0.8 1.4 70 2.1 W 20 28 11 15 - - 0.0
28/06:50pm 6.5 0.9 1.3 69 2.2 WNW 20 28 11 15 - - 0.0
28/06:40pm 6.6 1.9 1.1 68 2.3 W 15 26 8 14 - - 0.0
28/06:30pm 6.8 1.4 1.1 67 2.4 W 19 22 10 12 - - 0.0
28/06:20pm 6.9 1.9 1.2 67 2.4 WNW 17 24 9 13 - - 0.0
28/06:10pm 6.8 1.2 1.0 66 2.5 WNW 20 30 11 16 - - 0.0
28/06:00pm 6.8 0.8 1.0 66 2.5 WNW 22 30 12 16 - - 0.0
28/05:50pm 6.7 1.1 0.9 66 2.5 NW 20 30 11 16 - - 0.0
28/05:40pm 6.8 0.8 0.9 66 2.5 NW 22 26 12 14 - - 0.0
28/05:30pm 6.8 1.3 0.8 65 2.5 NW 19 24 10 13 - - 0.0
28/05:20pm 6.7 2.4 0.7 65 2.5 WNW 13 17 7 9 - - 0.0
28/05:10pm 6.7 2.0 0.7 65 2.5 W 15 19 8 10 - - 0.0
28/05:00pm 6.9 2.2 0.7 64 2.6 WNW 15 22 8 12 - - 0.0
28/04:50pm 7.2 1.5 0.5 62 2.8 WNW 20 30 11 16 - - 0.0
28/04:40pm 7.3 1.6 0.5 62 2.9 NW 20 28 11 15 - - 0.0
28/04:30pm 7.7 3.3 0.6 61 3.0 WNW 13 22 7 12 - - 0.0
28/04:20pm 7.2 2.4 0.4 62 2.9 WNW 15 22 8 12 - - 0.0
28/04:10pm 7.2 2.0 0.3 61 2.9 W 17 28 9 15 - - 0.0
28/04:00pm 7.4 2.6 0.4 61 2.9 W 15 24 8 13 - - 0.0
28/03:40pm 7.6 2.8 0.4 60 3.0 WNW 15 24 8 13 - - 0.0
28/03:30pm 7.6 3.3 1.2 64 2.7 WNW 13 26 7 14 - - 0.0
28/03:20pm 7.7 3.0 1.1 63 2.8 WNW 15 26 8 14 - - 0.0
28/03:10pm 7.7 2.6 1.0 62 2.9 WNW 17 22 9 12 - - 0.0
28/03:00pm 7.6 2.1 0.8 62 2.9 WNW 19 26 10 14 - - 0.0
28/02:50pm 7.8 2.7 0.9 61 2.9 WNW 17 30 9 16 - - 0.0
28/02:40pm 8.0 3.7 0.8 60 3.1 NW 13 19 7 10 - - 0.0
28/02:30pm 8.0 3.3 0.7 60 3.1 W 15 35 8 19 - - 0.0
28/02:20pm 8.3 3.6 0.6 58 3.3 WNW 15 24 8 13 - - 0.0
28/02:10pm 8.7 2.6 0.4 56 3.5 NW 22 28 12 15 - - 0.0
28/02:00pm 8.3 2.8 0.3 57 3.4 WSW 19 30 10 16 - - 0.0
28/01:50pm 8.0 3.2 0.5 59 3.2 W 15 22 8 12 - - 0.0
28/01:40pm 8.3 3.2 0.6 58 3.3 W 17 20 9 11 - - 0.0
28/01:30pm 8.5 4.1 0.6 57 3.4 W 13 22 7 12 - - 0.0
28/01:20pm 8.0 3.2 0.3 58 3.3 WSW 15 24 8 13 - - 0.0
28/01:10pm 7.9 1.8 0.3 58 3.2 WSW 22 28 12 15 - - 0.0
28/01:00pm 7.6 1.5 0.4 60 3.0 W 22 32 12 17 - - 0.0
28/12:50pm 7.6 2.1 0.6 61 3.0 W 19 22 10 12 - - 0.0
28/12:40pm 8.2 2.7 0.9 60 3.1 WSW 19 26 10 14 - - 0.0
28/12:30pm 8.5 3.8 0.8 58 3.3 W 15 22 8 12 - - 0.0
28/12:20pm 8.2 2.7 0.8 59 3.2 W 19 24 10 13 - - 0.0
28/12:10pm 8.4 2.9 0.5 57 3.4 W 19 30 10 16 - - 0.0
28/12:00pm 7.9 2.4 0.8 61 3.0 W 19 22 10 12 - - 0.0
28/11:50am 7.9 3.6 0.8 61 3.0 W 13 19 7 10 - - 0.0
28/11:40am 7.9 2.4 0.9 61 3.0 W 19 24 10 13 - - 0.0
28/11:30am 7.7 2.2 0.7 61 3.0 W 19 24 10 13 - - 0.0
28/11:20am 7.6 2.5 0.8 62 2.9 NW 17 24 9 13 - - 0.0
28/11:10am 7.9 3.2 1.2 62 2.9 W 15 26 8 14 - - 0.0
28/11:00am 8.1 3.8 0.9 60 3.1 NW 13 24 7 13 - - 0.0
28/10:50am 7.8 2.8 1.1 62 2.9 W 17 22 9 12 - - 0.0
28/10:40am 7.6 2.1 0.4 60 3.0 WSW 19 26 10 14 - - 0.0
28/10:30am 7.6 2.5 0.5 61 3.0 WSW 17 24 9 13 - - 0.0
28/10:20am 8.3 4.7 0.7 59 3.2 W 9 15 5 8 - - 0.0
28/10:10am 8.3 3.9 0.5 58 3.3 WSW 13 15 7 8 - - 0.0
28/10:00am 7.3 1.7 0.1 60 3.0 WSW 19 24 10 13 - - 0.0
28/09:50am 6.7 0.2 0.1 63 2.7 WSW 24 32 13 17 - - 0.0
28/09:40am 6.8 0.6 0.0 62 2.8 WSW 22 30 12 16 - - 0.0
28/09:30am 6.8 2.0 0.3 63 2.7 WSW 15 22 8 12 - - 0.0
28/09:20am 6.8 1.3 0.6 64 2.6 WSW 19 26 10 14 - - 0.0
28/09:10am 6.3 1.2 0.6 67 2.4 WSW 17 26 9 14 - - 0.0
28/09:00am 6.1 1.4 0.9 69 2.2 WSW 15 20 8 11 - - 0.0
28/08:50am 5.9 2.0 0.9 70 2.1 WSW 11 19 6 10 - - 0.0
28/08:40am 6.2 2.6 0.9 69 2.2 W 9 15 5 8 - - 0.0
28/08:30am 5.9 1.9 0.8 70 2.1 WSW 11 19 6 10 - - 0.0
28/08:20am 5.9 2.3 0.7 69 2.2 WSW 9 15 5 8 - - 0.0
28/08:10am 5.7 2.5 0.5 69 2.2 WSW 7 13 4 7 - - 0.0
28/08:00am 5.3 2.0 0.4 70 2.0 W 7 9 4 5 - - 0.0
28/07:50am 4.7 1.4 0.4 74 1.8 WSW 7 11 4 6 - - 0.0
28/07:40am 4.1 -0.3 0.3 76 1.5 W 13 17 7 9 - - 0.0
28/07:30am 3.4 -0.3 0.1 79 1.3 W 9 15 5 8 - - 0.0
28/07:20am 3.1 0.0 0.0 80 1.2 WSW 6 11 3 6 - - 0.0
28/07:10am 3.2 -0.1 0.0 79 1.3 WSW 7 9 4 5 - - 0.0
28/07:00am 3.3 -0.8 -0.1 78 1.4 W 11 15 6 8 - - 0.0
28/06:50am 3.4 -1.5 -0.2 77 1.4 WSW 15 19 8 10 - - 0.0
28/06:40am 3.5 -1.7 -0.2 77 1.5 WSW 17 19 9 10 - - 0.0
28/06:30am 3.4 -1.5 -0.2 77 1.4 WSW 15 19 8 10 - - 0.0
28/06:20am 3.3 -1.6 -0.3 77 1.4 WSW 15 19 8 10 - - 0.0
28/06:10am 3.2 -1.3 -0.3 78 1.4 WSW 13 17 7 9 - - 0.0
28/06:00am 3.1 -1.0 -0.2 79 1.3 SW 11 15 6 8 - - 0.0
28/05:50am 3.0 -1.5 -0.2 79 1.3 WSW 13 19 7 10 - - 0.0
28/05:40am 2.7 -1.0 -0.1 82 1.1 SW 9 15 5 8 - - 0.0
28/05:30am 2.9 -0.4 -0.2 80 1.2 SW 7 9 4 5 - - 0.0
28/05:20am 2.9 -0.8 -0.2 80 1.2 SW 9 15 5 8 - - 0.0
28/05:10am 3.0 -0.3 -0.2 79 1.3 SSW 7 11 4 6 - - 0.0
28/05:00am 3.3 -1.6 -0.3 77 1.4 SW 15 20 8 11 - - 0.0
28/04:50am 3.4 -1.5 -0.2 77 1.4 SW 15 22 8 12 - - 0.0
28/04:40am 3.4 -1.5 -0.4 76 1.5 SW 15 20 8 11 - - 0.0
28/04:30am 3.4 -1.5 -0.3 77 1.5 SW 15 19 8 10 - - 0.0
28/04:20am 3.5 -1.0 -0.3 76 1.5 SW 13 22 7 12 - - 0.0
28/04:10am 3.6 -1.3 -0.3 75 1.6 SW 15 22 8 12 - - 0.0
28/04:00am 3.5 -1.4 -0.4 75 1.5 WSW 15 19 8 10 - - 0.0
28/03:50am 3.3 -0.1 -0.3 77 1.4 WSW 7 15 4 8 - - 0.0
28/03:40am 3.3 -0.4 -0.3 77 1.4 WSW 9 11 5 6 - - 0.0
28/03:30am 3.2 -0.2 -0.3 78 1.4 SW 7 9 4 5 - - 0.0
28/03:20am 3.3 -0.4 -0.3 77 1.4 WSW 9 15 5 8 - - 0.0
28/03:10am 3.4 -0.3 -0.3 77 1.5 WSW 9 13 5 7 - - 0.0
28/03:00am 3.5 -1.0 -0.4 75 1.5 SW 13 20 7 11 - - 0.0
28/02:50am 3.5 -1.4 -0.5 75 1.6 SW 15 19 8 10 - - 0.0
28/02:40am 3.3 -1.6 -0.6 75 1.5 WSW 15 19 8 10 - - 0.0
28/02:30am 3.3 -1.3 -0.7 75 1.6 WSW 13 17 7 9 - - 0.0
28/02:20am 3.1 -1.9 -0.9 75 1.6 WSW 15 24 8 13 - - 0.0
28/02:10am 2.9 -1.7 -0.9 76 1.5 SW 13 20 7 11 - - 0.0
28/01:50am 2.8 -1.4 -1.0 76 1.5 WSW 11 15 6 8 - - 0.0
28/01:40am 2.7 -0.7 -0.9 77 1.4 SW 7 9 4 5 - - 0.0
28/01:30am 2.9 -0.9 -1.0 75 1.5 WSW 9 15 5 8 - - 0.0
28/01:20am 3.0 -1.2 -1.0 75 1.6 SW 11 15 6 8 - - 0.0
28/01:10am 2.9 -1.7 -1.0 75 1.5 WSW 13 15 7 8 - - 0.0
28/01:00am 2.9 -1.7 -1.0 75 1.5 SW 13 19 7 10 - - 0.0
28/12:50am 2.8 -1.8 -1.0 76 1.5 SW 13 19 7 10 - - 0.0
28/12:40am 2.7 -1.5 -1.0 76 1.4 SW 11 17 6 9 - - 0.0
28/12:30am 2.6 -1.2 -1.0 77 1.4 SW 9 15 5 8 - - 0.0
28/12:20am 2.6 -1.6 -1.0 77 1.4 SW 11 15 6 8 - - 0.0
28/12:10am 2.6 -1.6 -1.0 77 1.4 SW 11 15 6 8 - - 0.0
28/12:00am 2.5 -1.0 -1.0 78 1.3 SW 7 13 4 7 - - 0.0
 
Date/Time
EST
Temp
°C
App
Temp
°C
Dew
Point
°C
Rel
Hum
%
Delta-T
°C
Wind Press
QNH
hPa
Press
MSL
hPa
Rain since
9am
mm
Dir  Spd
km/h
Gust
km/h
Spd
kts
Gust
kts
27/11:50pm 2.6 -1.2 -0.9 78 1.4 SW 9 15 5 8 - - 0.0
27/11:40pm 2.7 -1.1 -0.9 77 1.4 SSW 9 15 5 8 - - 0.0
27/11:30pm 2.8 -1.8 -0.9 76 1.4 SW 13 20 7 11 - - 0.0
27/11:20pm 2.7 -1.5 -0.9 77 1.4 SW 11 17 6 9 - - 0.0
27/11:10pm 2.8 -1.0 -0.8 77 1.4 SW 9 15 5 8 - - 0.0
27/11:00pm 3.0 -0.8 -0.7 77 1.4 SW 9 11 5 6 - - 0.0
27/10:50pm 3.1 -1.5 -0.8 75 1.5 WSW 13 20 7 11 - - 0.0
27/10:40pm 3.2 -1.7 -0.5 77 1.5 WSW 15 20 8 11 - - 0.0
27/10:30pm 3.3 -1.2 -0.4 77 1.5 WSW 13 19 7 10 - - 0.0
27/10:20pm 3.4 -2.4 -0.4 76 1.5 WSW 20 26 11 14 - - 0.0
27/10:10pm 3.5 -2.3 -0.4 75 1.5 WSW 20 30 11 16 - - 0.0
27/10:00pm 3.5 -1.8 -0.3 76 1.5 WSW 17 28 9 15 - - 0.0
27/09:50pm 3.7 -1.9 -0.3 75 1.6 WSW 19 22 10 12 - - 0.0
27/09:40pm 3.8 -2.0 0.0 76 1.5 WSW 20 28 11 15 - - 0.0
27/09:30pm 3.9 -2.2 0.2 77 1.5 W 22 28 12 15 - - 0.0
27/09:20pm 4.0 -1.5 0.3 77 1.5 W 19 33 10 18 - - 0.0
27/09:10pm 4.1 -2.0 0.5 77 1.5 WSW 22 28 12 15 - - 0.0
27/09:00pm 4.2 -1.5 0.7 78 1.4 WSW 20 24 11 13 - - 0.0
27/08:50pm 4.3 -1.8 0.6 77 1.5 WSW 22 28 12 15 - - 0.0
27/08:40pm 4.2 -1.3 0.4 76 1.5 SW 19 26 10 14 - - 0.0
27/08:30pm 4.0 -1.2 0.2 76 1.5 WSW 17 26 9 14 - - 0.0
27/08:20pm 4.0 -1.6 0.0 75 1.6 WSW 19 28 10 15 - - 0.0
27/08:10pm 3.8 -0.3 -0.1 76 1.6 WSW 11 17 6 9 - - 0.0
27/08:00pm 3.8 -1.1 -0.3 74 1.6 WSW 15 20 8 11 - - 0.0
27/07:50pm 3.8 -0.7 -0.5 73 1.7 WSW 13 19 7 10 - - 0.0
27/07:40pm 3.8 -0.3 -0.5 73 1.7 W 11 17 6 9 - - 0.0
27/07:30pm 3.7 -0.8 -0.5 74 1.7 W 13 22 7 12 - - 0.0
27/07:20pm 3.7 -0.8 -0.5 74 1.7 W 13 22 7 12 - - 0.0
27/07:10pm 3.8 -1.9 -0.6 73 1.7 WSW 19 24 10 13 - - 0.0
27/07:00pm 3.8 -2.4 -0.6 73 1.7 WSW 22 30 12 16 - - 0.0
27/06:50pm 3.8 -2.8 -0.6 73 1.7 WSW 24 30 13 16 - - 0.0
27/06:40pm 3.9 -1.9 -0.4 73 1.7 W 20 30 11 16 - - 0.0
27/06:30pm 3.9 -0.2 -0.1 75 1.6 W 11 19 6 10 - - 0.0
27/06:20pm 3.9 -1.0 -0.2 74 1.6 W 15 24 8 13 - - 0.0
27/06:10pm 3.9 -0.6 -0.3 74 1.7 W 13 19 7 10 - - 0.0
27/06:00pm 3.9 -0.6 -0.4 73 1.7 W 13 20 7 11 - - 0.0
27/05:50pm 3.9 0.2 -0.3 74 1.7 W 9 20 5 11 - - 0.0
27/05:40pm 3.9 -0.2 -0.3 74 1.7 NW 11 19 6 10 - - 0.0
27/05:30pm 3.9 -1.0 -0.4 73 1.7 WNW 15 22 8 12 - - 0.0
27/05:20pm 4.0 -0.9 -0.3 73 1.7 WSW 15 20 8 11 - - 0.0
27/05:10pm 4.1 -0.7 0.0 74 1.7 W 15 19 8 10 - - 0.0
27/05:00pm 4.3 0.6 0.1 74 1.7 W 9 17 5 9 - - 0.0
27/04:50pm 4.6 0.5 0.1 72 1.8 W 11 13 6 7 - - 0.0
27/04:40pm 5.0 -0.2 0.2 71 2.0 WSW 17 22 9 12 - - 0.0
27/04:30pm 5.9 0.3 0.2 67 2.4 WSW 19 24 10 13 - - 0.0
27/04:20pm 5.9 0.4 0.3 67 2.3 WSW 19 22 10 12 - - 0.0
27/04:10pm 5.8 0.1 0.4 68 2.2 WSW 20 28 11 15 - - 0.0
27/04:00pm 6.0 0.3 0.5 68 2.3 WSW 20 22 11 12 - - 0.0
27/03:50pm 6.8 1.3 0.8 65 2.5 WSW 19 24 10 13 - - 0.0
27/03:40pm 7.3 2.2 0.9 64 2.7 WSW 17 19 9 10 - - 0.0

Other formats

Comma delimited format used in spreadsheet applications
http://www.bom.gov.au/fwo/IDN60801/IDN60801.99999.axf

JavaScript Object Notation format (JSON) in row-major order
http://www.bom.gov.au/fwo/IDN60801/IDN60801.99999.json

Data quality

Most of these data are generated automatically and are frequently updated. Quality checks on data are not normally performed. It is possible for incorrect values to appear. Refer to information at About Latest Weather Observations and please check the disclaimer before using these data.